CheckWX is a tool to help pilots better visualize weather data.  It is not intended as a substitute for an official pre-flight weather briefing.

01:47:47 UTC

EGAE METAR
City of Derry Airport
Derry, United Kingdom
Current

6 hours ago

EGAE 141950Z 07003KT 9999 FEW016 SCT042 12/11 Q1003
Observed
Oct-14 @ 19:50 UTC
Wind
  • 070° at 3 KTS
Visibility
10,000+ meters
Flight Rules
VFR
Cloud Levels
  • Few at 1,600' AGL
  • Scattered at 4,200' AGL
Temperature
12°C / 54°F
Dewpoint
11°C / 52°F
Humidity
94%
Altimeter
29.62" Hg
Pressure
1002.92 hPa
Previous

6 hours ago

EGAE 141920Z 07007KT 9999 FEW009 SCT035 13/12 Q1003
Observed
Oct-14 @ 19:20 UTC
Wind
  • 070° at 7 KTS
Visibility
10,000+ meters
Flight Rules
VFR
Cloud Levels
  • Few at 900' AGL
  • Scattered at 3,500' AGL
Temperature
13°C / 55°F
Dewpoint
12°C / 54°F
Humidity
94%
Altimeter
29.62" Hg
Pressure
1002.92 hPa
Previous

7 hours ago

EGAE 141850Z 07007KT 9999 FEW009 SCT035 12/11 Q1003
Observed
Oct-14 @ 18:50 UTC
Wind
  • 070° at 7 KTS
Visibility
10,000+ meters
Flight Rules
VFR
Cloud Levels
  • Few at 900' AGL
  • Scattered at 3,500' AGL
Temperature
12°C / 54°F
Dewpoint
11°C / 52°F
Humidity
94%
Altimeter
29.62" Hg
Pressure
1002.92 hPa